createdAt,value
2022-10-21T00:01:02.918Z,97884.00
2022-10-21T00:03:30.681Z,97887.00
2022-10-21T00:05:58.575Z,97883.00
2022-10-21T00:08:26.649Z,97869.00
2022-10-21T00:10:55.845Z,97861.00
2022-10-21T00:13:26.866Z,97867.00
2022-10-21T00:16:04.158Z,97858.00
2022-10-21T00:18:33.784Z,97863.00
2022-10-21T00:21:02.099Z,97873.00
2022-10-21T00:23:29.881Z,97867.00
2022-10-21T00:25:58.479Z,97865.00
2022-10-21T00:28:28.863Z,97867.00
2022-10-21T00:30:58.353Z,97853.00
2022-10-21T00:33:28.710Z,97844.00
2022-10-21T00:35:59.589Z,97839.00
2022-10-21T00:38:27.214Z,97830.00
2022-10-21T00:40:55.406Z,97843.00
2022-10-21T00:43:23.459Z,97835.00
2022-10-21T00:45:56.866Z,97846.00
2022-10-21T00:48:35.079Z,97852.00
2022-10-21T00:51:08.132Z,97859.00
2022-10-21T00:53:39.436Z,97855.00
2022-10-21T00:56:16.531Z,97852.00
2022-10-21T00:58:47.917Z,97847.00
2022-10-21T01:01:20.630Z,97837.00
2022-10-21T01:03:49.960Z,97817.00
2022-10-21T01:06:20.898Z,97817.00
2022-10-21T01:08:48.637Z,97827.00
2022-10-21T01:11:20.647Z,97824.00
2022-10-21T01:14:08.509Z,97812.00
2022-10-21T01:16:49.048Z,97799.00
2022-10-21T01:19:51.208Z,97788.00
2022-10-21T01:22:40.616Z,97786.00
2022-10-21T01:25:50.898Z,97784.00
2022-10-21T01:28:34.633Z,97796.00
2022-10-21T01:31:13.866Z,97784.00
2022-10-21T01:33:44.642Z,97785.00
2022-10-21T01:36:29.196Z,97790.00
2022-10-21T01:39:18.925Z,97783.00
2022-10-21T01:41:56.222Z,97761.00
2022-10-21T01:44:30.534Z,97767.00
2022-10-21T01:47:05.154Z,97759.00
2022-10-21T01:49:39.639Z,97765.00
2022-10-21T01:52:09.233Z,97767.00
2022-10-21T01:54:42.679Z,97778.00
2022-10-21T01:57:16.365Z,97793.00
2022-10-21T01:59:47.439Z,97789.00
2022-10-21T02:02:19.757Z,97790.00
2022-10-21T02:04:51.822Z,97801.00
2022-10-21T02:07:19.754Z,97787.00
2022-10-21T02:09:47.501Z,97803.00
2022-10-21T02:12:18.054Z,97791.00
2022-10-21T02:14:50.910Z,97803.00
2022-10-21T02:17:22.884Z,97791.00
2022-10-21T02:19:50.715Z,97775.00
2022-10-21T02:22:23.928Z,97782.00
2022-10-21T02:24:56.495Z,97769.00
2022-10-21T02:27:25.111Z,97772.00
2022-10-21T02:29:58.694Z,97771.00
2022-10-21T02:32:38.547Z,97769.00
2022-10-21T02:35:21.725Z,97760.00
2022-10-21T02:37:57.722Z,97768.00
2022-10-21T02:40:32.952Z,97759.00
2022-10-21T02:43:07.655Z,97755.00
2022-10-21T02:45:35.691Z,97739.00
2022-10-21T02:48:05.135Z,97743.00
2022-10-21T02:50:33.127Z,97739.00
2022-10-21T02:53:00.881Z,97737.00
2022-10-21T02:55:28.656Z,97739.00
2022-10-21T02:57:56.469Z,97729.00
2022-10-21T03:00:24.192Z,97731.00
2022-10-21T03:02:52.038Z,97731.00
2022-10-21T03:05:21.134Z,97724.00
2022-10-21T03:07:48.911Z,97715.00
2022-10-21T03:10:16.933Z,97716.00
2022-10-21T03:12:44.654Z,97710.00
2022-10-21T03:15:12.470Z,97701.00
2022-10-21T03:17:40.524Z,97701.00
2022-10-21T03:20:09.153Z,97706.00
2022-10-21T03:22:38.253Z,97701.00
2022-10-21T03:25:08.033Z,97696.00
2022-10-21T03:27:35.789Z,97691.00
2022-10-21T03:30:04.889Z,97697.00
2022-10-21T03:32:32.670Z,97691.00
2022-10-21T03:35:00.429Z,97695.00
2022-10-21T03:37:28.536Z,97684.00
2022-10-21T03:39:57.606Z,97689.00
2022-10-21T03:42:25.485Z,97689.00
2022-10-21T03:44:53.252Z,97687.00
2022-10-21T03:47:21.041Z,97684.00
2022-10-21T03:49:48.925Z,97669.00
2022-10-21T03:52:16.828Z,97664.00
2022-10-21T03:54:44.584Z,97669.00
2022-10-21T03:57:13.681Z,97663.00
2022-10-21T03:59:41.411Z,97661.00
2022-10-21T04:02:09.184Z,97669.00
2022-10-21T04:04:37.102Z,97661.00
2022-10-21T04:07:04.983Z,97660.00
2022-10-21T04:09:32.716Z,97663.00
2022-10-21T04:12:00.474Z,97660.00
2022-10-21T04:14:29.605Z,97646.00
2022-10-21T04:17:06.447Z,97640.00
2022-10-21T04:19:34.835Z,97628.00
2022-10-21T04:22:02.557Z,97626.00
2022-10-21T04:24:30.331Z,97619.00
2022-10-21T04:26:58.081Z,97611.00
2022-10-21T04:29:26.742Z,97616.00
2022-10-21T04:34:28.543Z,97591.00
2022-10-21T04:36:59.785Z,97588.00
2022-10-21T04:39:30.363Z,97573.00
2022-10-21T04:41:58.099Z,97581.00
2022-10-21T04:44:26.028Z,97584.00
2022-10-21T04:46:55.288Z,97581.00
2022-10-21T04:49:23.127Z,97582.00
2022-10-21T04:51:50.850Z,97580.00
2022-10-21T04:54:18.674Z,97582.00
2022-10-21T04:56:46.441Z,97577.00
2022-10-21T04:59:14.357Z,97579.00
2022-10-21T05:01:42.177Z,97586.00
2022-10-21T05:04:11.317Z,97582.00
2022-10-21T05:06:39.082Z,97568.00
2022-10-21T05:09:07.217Z,97574.00
2022-10-21T05:11:35.047Z,97577.00
2022-10-21T05:14:02.969Z,97586.00
2022-10-21T05:16:30.732Z,97586.00
2022-10-21T05:18:58.499Z,97576.00
2022-10-21T05:21:27.697Z,97578.00
2022-10-21T05:23:55.476Z,97577.00
2022-10-21T05:26:24.234Z,97562.00
2022-10-21T05:28:51.990Z,97565.00
2022-10-21T05:31:19.762Z,97560.00
2022-10-21T05:33:47.544Z,97573.00
2022-10-21T05:36:15.319Z,97564.00
2022-10-21T05:38:44.437Z,97559.00
2022-10-21T05:41:12.857Z,97551.00
2022-10-21T05:43:40.697Z,97557.00
2022-10-21T05:46:09.121Z,97561.00
2022-10-21T05:48:37.645Z,97562.00
2022-10-21T05:51:08.407Z,97578.00
2022-10-21T05:53:36.926Z,97580.00
2022-10-21T05:56:09.100Z,97576.00
2022-10-21T08:36:08.047Z,97653.00
2022-10-21T08:38:36.854Z,97647.00
2022-10-21T08:41:21.684Z,97640.00
2022-10-21T08:43:51.042Z,97632.00
2022-10-21T08:46:25.490Z,97625.00
2022-10-21T08:49:02.630Z,97616.00
2022-10-21T08:51:38.730Z,97615.00
2022-10-21T08:54:14.896Z,97615.00
2022-10-21T08:56:42.696Z,97613.00
2022-10-21T08:59:22.726Z,97620.00
2022-10-21T09:01:58.538Z,97607.00
2022-10-21T09:04:38.920Z,97598.00
2022-10-21T09:07:21.014Z,97601.00
2022-10-21T09:09:57.680Z,97599.00
2022-10-21T09:12:39.371Z,97595.00
2022-10-21T09:15:25.935Z,97607.00
2022-10-21T09:18:26.750Z,97613.00
2022-10-21T09:21:08.378Z,97607.00
2022-10-21T09:23:53.630Z,97596.00
2022-10-21T09:26:37.650Z,97616.00
2022-10-21T09:29:28.942Z,97611.00
2022-10-21T09:32:11.651Z,97612.00
2022-10-21T09:34:50.218Z,97610.00
2022-10-21T09:37:31.709Z,97624.00
2022-10-21T09:40:16.935Z,97631.00
2022-10-21T09:42:48.537Z,97635.00
2022-10-21T09:45:25.778Z,97658.00
2022-10-21T09:47:59.986Z,97653.00
2022-10-21T09:50:29.577Z,97661.00
2022-10-21T09:53:07.176Z,97678.00
2022-10-21T09:55:36.519Z,97676.00
2022-10-21T09:58:05.738Z,97685.00
2022-10-21T10:00:50.384Z,97682.00
2022-10-21T10:03:33.891Z,97687.00
2022-10-21T10:06:03.868Z,97678.00
2022-10-21T10:08:40.195Z,97672.00
2022-10-21T10:11:20.308Z,97658.00
2022-10-21T10:13:50.181Z,97644.00
2022-10-21T10:16:26.784Z,97622.00
2022-10-21T10:19:16.105Z,97614.00
2022-10-21T10:21:43.868Z,97604.00
2022-10-21T10:24:19.702Z,97588.00
2022-10-21T10:26:50.138Z,97574.00
2022-10-21T10:29:27.057Z,97578.00
2022-10-21T10:31:58.576Z,97585.00
2022-10-21T10:34:34.106Z,97571.00
2022-10-21T10:37:07.714Z,97576.00
2022-10-21T10:39:40.407Z,97559.00
2022-10-21T10:42:09.699Z,97559.00
2022-10-21T10:44:41.960Z,97543.00
2022-10-21T10:47:21.082Z,97545.00
2022-10-21T10:49:50.342Z,97535.00
2022-10-21T10:52:24.113Z,97537.00
2022-10-21T10:55:18.656Z,97534.00
2022-10-21T10:57:59.303Z,97536.00
2022-10-21T11:00:45.880Z,97523.00
2022-10-21T11:03:26.088Z,97518.00
2022-10-21T11:06:06.735Z,97515.00
2022-10-21T11:08:42.293Z,97534.00
2022-10-21T11:11:21.374Z,97559.00
2022-10-21T11:13:50.554Z,97613.00
2022-10-21T11:16:57.295Z,97657.00
2022-10-21T11:19:39.362Z,97682.00
2022-10-21T11:22:20.957Z,97695.00
2022-10-21T11:25:05.036Z,97656.00
2022-10-21T11:27:58.246Z,97687.00
2022-10-21T11:30:41.022Z,97675.00
2022-10-21T11:33:23.225Z,97652.00
2022-10-21T11:36:03.992Z,97641.00
2022-10-21T11:38:55.935Z,97643.00
2022-10-21T11:41:34.455Z,97650.00
2022-10-21T11:44:29.180Z,97651.00
2022-10-21T11:47:14.748Z,97662.00
2022-10-21T11:50:00.322Z,97654.00
2022-10-21T11:52:42.418Z,97648.00
2022-10-21T11:55:31.933Z,97635.00
2022-10-21T11:58:16.361Z,97642.00
2022-10-21T12:00:54.771Z,97649.00
2022-10-21T12:03:54.482Z,97651.00
2022-10-21T12:06:38.351Z,97662.00
2022-10-21T12:09:15.827Z,97654.00
2022-10-21T12:11:51.169Z,97667.00
2022-10-21T12:14:31.519Z,97671.00
2022-10-21T12:17:02.750Z,97659.00
2022-10-21T12:19:32.115Z,97654.00
2022-10-21T12:22:00.087Z,97650.00
2022-10-21T12:24:48.117Z,97648.00
2022-10-21T12:27:28.975Z,97653.00
2022-10-21T12:30:10.576Z,97659.00
2022-10-21T12:32:49.140Z,97653.00
2022-10-21T12:38:43.125Z,97657.00
2022-10-21T12:41:39.351Z,97654.00
2022-10-21T12:44:26.328Z,97657.00
2022-10-21T12:46:57.972Z,97660.00
2022-10-21T12:49:32.295Z,97653.00
2022-10-21T12:52:12.270Z,97649.00
2022-10-21T12:54:51.852Z,97646.00
2022-10-21T12:57:28.567Z,97644.00
2022-10-21T13:00:54.190Z,97635.00
2022-10-21T13:03:23.414Z,97629.00
2022-10-21T13:06:06.662Z,97617.00
2022-10-21T13:08:53.536Z,97634.00
2022-10-21T13:11:39.670Z,97625.00
2022-10-21T13:14:35.309Z,97629.00
2022-10-21T13:17:45.989Z,97630.00
2022-10-21T13:20:46.439Z,97629.00
2022-10-21T13:23:45.138Z,97632.00
2022-10-21T13:26:21.025Z,97626.00
2022-10-21T13:29:03.753Z,97627.00
2022-10-21T13:31:31.879Z,97617.00
2022-10-21T13:34:00.164Z,97614.00
2022-10-21T13:36:39.511Z,97612.00
2022-10-21T13:39:24.683Z,97615.00
2022-10-21T13:42:04.486Z,97610.00
2022-10-21T13:44:38.074Z,97617.00
2022-10-21T13:47:30.137Z,97624.00
2022-10-21T13:50:06.298Z,97619.00
2022-10-21T13:52:34.096Z,97621.00
2022-10-21T13:55:06.173Z,97614.00
2022-10-21T13:57:37.083Z,97617.00
2022-10-21T14:00:10.358Z,97609.00
2022-10-21T14:02:38.177Z,97609.00
2022-10-21T14:05:06.611Z,97602.00
2022-10-21T14:07:34.435Z,97604.00
2022-10-21T14:10:07.366Z,97606.00
2022-10-21T14:12:44.580Z,97613.00
2022-10-21T14:15:19.195Z,97612.00
2022-10-21T14:17:55.025Z,97611.00
2022-10-21T14:20:30.253Z,97603.00
2022-10-21T14:22:58.104Z,97622.00
2022-10-21T14:25:28.158Z,97609.00
2022-10-21T14:27:56.534Z,97598.00
2022-10-21T14:30:28.367Z,97601.00
2022-10-21T14:32:59.854Z,97597.00
2022-10-21T14:35:30.171Z,97593.00
2022-10-21T14:38:00.895Z,97601.00
2022-10-21T14:40:33.446Z,97613.00
2022-10-21T14:43:04.005Z,97613.00
2022-10-21T14:45:34.934Z,97618.00
2022-10-21T14:48:09.920Z,97626.00
2022-10-21T14:50:39.795Z,97617.00
2022-10-21T14:53:17.105Z,97630.00
2022-10-21T14:55:48.706Z,97623.00
2022-10-21T14:58:23.684Z,97624.00
2022-10-21T15:00:56.709Z,97624.00
2022-10-21T15:03:39.271Z,97632.00
2022-10-21T15:06:14.741Z,97614.00
2022-10-21T15:08:45.441Z,97614.00
2022-10-21T15:11:24.307Z,97616.00
2022-10-21T15:14:17.706Z,97621.00
2022-10-21T15:16:53.518Z,97616.00
2022-10-21T15:19:25.918Z,97616.00
2022-10-21T15:21:58.953Z,97609.00
2022-10-21T15:24:37.395Z,97616.00
2022-10-21T15:27:07.610Z,97615.00
2022-10-21T15:29:38.431Z,97609.00
2022-10-21T15:32:07.480Z,97616.00
2022-10-21T15:34:35.284Z,97616.00
2022-10-21T15:37:03.089Z,97611.00
2022-10-21T15:39:31.564Z,97620.00
2022-10-21T15:42:00.100Z,97612.00
2022-10-21T15:44:31.937Z,97606.00
2022-10-21T15:47:02.778Z,97606.00
2022-10-21T15:49:35.027Z,97614.00
2022-10-21T15:52:03.065Z,97605.00
2022-10-21T15:54:30.893Z,97615.00
2022-10-21T15:57:01.289Z,97611.00
2022-10-21T15:59:33.069Z,97609.00
2022-10-21T16:02:02.125Z,97624.00
2022-10-21T16:04:30.016Z,97604.00
2022-10-21T16:06:58.079Z,97600.00
2022-10-21T16:09:29.737Z,97603.00
2022-10-21T16:12:01.272Z,97604.00
2022-10-21T16:14:31.325Z,97600.00
2022-10-21T16:17:00.502Z,97611.00
2022-10-21T16:19:28.983Z,97597.00
2022-10-21T16:21:56.959Z,97587.00
2022-10-21T16:24:24.702Z,97585.00
2022-10-21T16:26:52.553Z,97571.00
2022-10-21T16:29:22.942Z,97588.00
2022-10-21T16:31:53.742Z,97570.00
2022-10-21T16:34:21.953Z,97603.00
2022-10-21T16:36:50.054Z,97598.00
2022-10-21T16:39:22.162Z,97592.00
2022-10-21T16:41:49.997Z,97610.00
2022-10-21T16:44:18.533Z,97620.00
2022-10-21T16:46:53.263Z,97627.00
2022-10-21T16:49:24.794Z,97638.00
2022-10-21T16:51:53.529Z,97640.00
2022-10-21T16:54:23.498Z,97641.00
2022-10-21T16:56:54.729Z,97635.00
2022-10-21T16:59:23.351Z,97630.00
2022-10-21T17:01:52.699Z,97638.00
2022-10-21T17:04:20.435Z,97630.00
2022-10-21T17:06:49.227Z,97641.00
2022-10-21T17:09:19.385Z,97629.00
2022-10-21T17:11:47.847Z,97627.00
2022-10-21T17:14:19.008Z,97625.00
2022-10-21T17:16:47.597Z,97631.00
2022-10-21T17:19:16.783Z,97627.00
2022-10-21T17:21:45.298Z,97635.00
2022-10-21T17:24:16.678Z,97636.00
2022-10-21T17:26:45.400Z,97649.00
2022-10-21T17:29:13.685Z,97633.00
2022-10-21T17:31:43.966Z,97644.00
2022-10-21T17:34:27.309Z,97641.00
2022-10-21T17:36:55.255Z,97637.00
2022-10-21T17:39:23.129Z,97645.00
2022-10-21T17:41:50.908Z,97634.00
2022-10-21T17:44:19.518Z,97635.00
2022-10-21T17:46:47.534Z,97636.00
2022-10-21T17:49:15.448Z,97639.00
2022-10-21T17:51:44.603Z,97642.00
2022-10-21T17:54:12.347Z,97642.00
2022-10-21T17:56:41.608Z,97648.00
2022-10-21T17:59:09.899Z,97643.00
2022-10-21T18:01:37.987Z,97642.00
2022-10-21T18:04:06.053Z,97644.00
2022-10-21T18:06:33.830Z,97639.00
2022-10-21T18:09:05.162Z,97642.00
2022-10-21T18:11:32.927Z,97644.00
2022-10-21T18:14:00.712Z,97644.00
2022-10-21T18:16:28.532Z,97639.00
2022-10-21T18:19:01.862Z,97636.00
2022-10-21T18:21:31.707Z,97636.00
2022-10-21T18:24:00.119Z,97635.00
2022-10-21T18:26:32.119Z,97635.00
2022-10-21T18:29:02.765Z,97638.00
2022-10-21T18:31:34.510Z,97625.00
2022-10-21T18:34:05.001Z,97629.00
2022-10-21T18:36:33.530Z,97637.00
2022-10-21T18:39:02.129Z,97623.00
2022-10-21T18:41:31.383Z,97633.00
2022-10-21T18:44:02.370Z,97635.00
2022-10-21T18:46:30.879Z,97620.00
2022-10-21T18:48:58.942Z,97619.00
2022-10-21T18:51:26.836Z,97603.00
2022-10-21T18:53:54.722Z,97601.00
2022-10-21T18:56:25.766Z,97600.00
2022-10-21T18:58:57.236Z,97595.00
2022-10-21T19:01:26.930Z,97596.00
2022-10-21T19:03:56.049Z,97592.00
2022-10-21T19:06:37.793Z,97601.00
2022-10-21T19:09:12.811Z,97603.00
2022-10-21T19:11:41.357Z,97607.00
2022-10-21T19:14:13.784Z,97616.00
2022-10-21T19:16:42.369Z,97624.00
2022-10-21T19:19:10.937Z,97620.00
2022-10-21T19:21:38.711Z,97618.00
2022-10-21T19:24:06.905Z,97621.00
2022-10-21T19:26:37.897Z,97619.00
2022-10-21T19:29:08.029Z,97626.00
2022-10-21T19:31:38.599Z,97629.00
2022-10-21T19:34:07.097Z,97628.00
2022-10-21T19:36:35.364Z,97626.00
2022-10-21T19:39:03.133Z,97618.00
2022-10-21T19:41:30.940Z,97614.00
2022-10-21T19:43:59.887Z,97631.00
2022-10-21T19:46:31.673Z,97630.00
2022-10-21T19:49:02.514Z,97640.00
2022-10-21T19:51:30.393Z,97636.00
2022-10-21T19:53:58.099Z,97633.00
2022-10-21T19:56:30.765Z,97631.00
2022-10-21T19:59:02.282Z,97635.00
2022-10-21T20:01:30.135Z,97641.00
2022-10-21T20:03:58.107Z,97635.00
2022-10-21T20:06:29.702Z,97640.00
2022-10-21T20:09:00.090Z,97645.00
2022-10-21T20:11:29.533Z,97652.00
2022-10-21T20:13:57.631Z,97650.00
2022-10-21T20:16:27.989Z,97654.00
2022-10-21T20:18:57.533Z,97657.00
2022-10-21T20:21:27.182Z,97667.00
2022-10-21T20:23:55.155Z,97657.00
2022-10-21T20:26:24.010Z,97662.00
2022-10-21T20:28:52.049Z,97671.00
2022-10-21T20:31:20.134Z,97671.00
2022-10-21T20:33:51.055Z,97670.00
2022-10-21T20:36:21.279Z,97669.00
2022-10-21T20:38:52.135Z,97663.00
2022-10-21T20:41:22.907Z,97663.00
2022-10-21T20:43:52.237Z,97658.00
2022-10-21T20:46:22.590Z,97661.00
2022-10-21T20:48:52.563Z,97658.00
2022-10-21T20:51:23.727Z,97652.00
2022-10-21T20:53:56.166Z,97646.00
2022-10-21T20:56:27.713Z,97654.00
2022-10-21T20:58:55.896Z,97650.00
2022-10-21T21:01:27.229Z,97647.00
2022-10-21T21:03:59.361Z,97650.00
2022-10-21T21:06:28.852Z,97656.00
2022-10-21T21:09:28.856Z,97645.00
2022-10-21T21:11:46.593Z,97643.00
2022-10-21T21:14:15.095Z,97641.00
2022-10-21T21:16:42.953Z,97637.00
2022-10-21T21:19:14.568Z,97634.00
2022-10-21T21:21:42.600Z,97632.00
2022-10-21T21:24:11.646Z,97640.00
2022-10-21T21:26:41.221Z,97642.00
2022-10-21T21:29:13.975Z,97633.00
2022-10-21T21:31:42.603Z,97630.00
2022-10-21T21:34:11.206Z,97624.00
2022-10-21T21:36:39.011Z,97626.00
2022-10-21T21:39:08.416Z,97631.00
2022-10-21T21:41:38.707Z,97634.00
2022-10-21T21:44:07.335Z,97618.00
2022-10-21T21:46:35.076Z,97606.00
2022-10-21T21:49:06.516Z,97617.00
2022-10-21T21:51:37.445Z,97621.00
2022-10-21T21:54:07.589Z,97619.00
2022-10-21T21:56:36.924Z,97612.00
2022-10-21T21:59:05.315Z,97611.00
2022-10-21T22:01:33.149Z,97614.00
2022-10-21T22:04:01.811Z,97606.00
2022-10-21T22:06:32.585Z,97610.00
2022-10-21T22:09:01.607Z,97621.00
2022-10-21T22:11:32.802Z,97628.00
2022-10-21T22:14:02.210Z,97624.00
2022-10-21T22:16:30.975Z,97634.00
2022-10-21T22:19:01.498Z,97644.00
2022-10-21T22:21:32.392Z,97639.00
2022-10-21T22:24:00.224Z,97645.00
2022-10-21T22:26:28.862Z,97639.00
2022-10-21T22:28:57.031Z,97642.00
2022-10-21T22:31:29.464Z,97658.00
2022-10-21T22:34:01.100Z,97660.00
2022-10-21T22:36:29.329Z,97651.00
2022-10-21T22:38:57.153Z,97650.00
2022-10-21T22:41:24.946Z,97649.00
2022-10-21T22:43:52.714Z,97663.00
2022-10-21T22:46:32.862Z,97646.00
2022-10-21T22:49:04.279Z,97648.00
2022-10-21T22:51:32.484Z,97660.00
2022-10-21T22:54:01.302Z,97654.00
2022-10-21T22:56:29.641Z,97650.00
2022-10-21T22:58:58.092Z,97649.00
2022-10-21T23:01:29.969Z,97654.00
2022-10-21T23:03:58.005Z,97649.00
2022-10-21T23:06:27.219Z,97649.00
2022-10-21T23:08:55.023Z,97655.00
2022-10-21T23:11:22.823Z,97656.00
2022-10-21T23:14:02.107Z,97641.00
2022-10-21T23:16:31.927Z,97657.00
2022-10-21T23:19:00.187Z,97653.00
2022-10-21T23:21:29.520Z,97656.00
2022-10-21T23:23:57.439Z,97650.00
2022-10-21T23:26:25.493Z,97653.00
2022-10-21T23:28:53.315Z,97652.00
2022-10-21T23:31:21.182Z,97652.00
2022-10-21T23:33:49.041Z,97649.00
2022-10-21T23:36:16.762Z,97649.00
2022-10-21T23:38:45.841Z,97657.00
2022-10-21T23:41:13.622Z,97645.00
2022-10-21T23:43:42.089Z,97645.00
2022-10-21T23:46:09.825Z,97645.00
2022-10-21T23:48:37.559Z,97642.00
2022-10-21T23:51:05.898Z,97641.00
2022-10-21T23:53:33.718Z,97644.00
2022-10-21T23:56:02.758Z,97644.00
2022-10-21T23:58:30.536Z,97645.00
